sensor_id;sensor_type;location;lat;lon;timestamp;P1;durP1;ratioP1;P2;durP2;ratioP2
60973;SDS011;46846;51.528;5.076;2024-01-06T00:01:18;698.50;;;663.23;;
60973;SDS011;46846;51.528;5.076;2024-01-06T00:03:44;687.45;;;652.75;;
60973;SDS011;46846;51.528;5.076;2024-01-06T00:08:40;697.17;;;661.65;;
60973;SDS011;46846;51.528;5.076;2024-01-06T00:11:06;721.10;;;684.25;;
60973;SDS011;46846;51.528;5.076;2024-01-06T00:13:31;722.20;;;684.90;;
60973;SDS011;46846;51.528;5.076;2024-01-06T00:15:57;722.25;;;685.40;;
60973;SDS011;46846;51.528;5.076;2024-01-06T00:18:22;702.28;;;666.53;;
60973;SDS011;46846;51.528;5.076;2024-01-06T00:23:13;679.03;;;644.23;;
60973;SDS011;46846;51.528;5.076;2024-01-06T00:25:38;720.15;;;683.33;;
60973;SDS011;46846;51.528;5.076;2024-01-06T00:30:29;695.43;;;659.73;;
60973;SDS011;46846;51.528;5.076;2024-01-06T00:32:54;698.28;;;662.67;;
60973;SDS011;46846;51.528;5.076;2024-01-06T00:35:20;697.58;;;662.10;;
60973;SDS011;46846;51.528;5.076;2024-01-06T00:40:10;698.57;;;663.57;;
60973;SDS011;46846;51.528;5.076;2024-01-06T00:42:36;721.65;;;685.10;;
60973;SDS011;46846;51.528;5.076;2024-01-06T00:45:01;707.35;;;671.35;;
60973;SDS011;46846;51.528;5.076;2024-01-06T00:47:28;723.67;;;686.22;;
60973;SDS011;46846;51.528;5.076;2024-01-06T00:49:53;698.58;;;663.38;;
60973;SDS011;46846;51.528;5.076;2024-01-06T00:52:18;728.10;;;690.50;;
60973;SDS011;46846;51.528;5.076;2024-01-06T00:57:09;684.07;;;649.70;;
60973;SDS011;46846;51.528;5.076;2024-01-06T00:59:34;715.42;;;678.80;;
60973;SDS011;46846;51.528;5.076;2024-01-06T01:02:00;695.47;;;659.92;;
60973;SDS011;46846;51.528;5.076;2024-01-06T01:04:25;737.65;;;699.60;;
60973;SDS011;46846;51.528;5.076;2024-01-06T01:09:16;707.78;;;671.85;;
60973;SDS011;46846;51.528;5.076;2024-01-06T01:11:41;727.17;;;689.72;;
60973;SDS011;46846;51.528;5.076;2024-01-06T01:14:07;725.58;;;688.38;;
60973;SDS011;46846;51.528;5.076;2024-01-06T01:16:32;734.70;;;696.28;;
60973;SDS011;46846;51.528;5.076;2024-01-06T01:21:23;694.57;;;659.40;;
60973;SDS011;46846;51.528;5.076;2024-01-06T01:23:49;724.90;;;687.25;;
60973;SDS011;46846;51.528;5.076;2024-01-06T01:26:15;730.13;;;692.75;;
60973;SDS011;46846;51.528;5.076;2024-01-06T01:31:05;692.63;;;657.87;;
60973;SDS011;46846;51.528;5.076;2024-01-06T01:35:56;686.53;;;651.78;;
60973;SDS011;46846;51.528;5.076;2024-01-06T01:40:47;687.03;;;651.93;;
60973;SDS011;46846;51.528;5.076;2024-01-06T01:45:41;682.55;;;648.35;;
60973;SDS011;46846;51.528;5.076;2024-01-06T01:48:07;708.63;;;672.80;;
60973;SDS011;46846;51.528;5.076;2024-01-06T01:52:58;670.60;;;637.28;;
60973;SDS011;46846;51.528;5.076;2024-01-06T01:55:24;678.30;;;644.10;;
60973;SDS011;46846;51.528;5.076;2024-01-06T01:57:50;708.90;;;672.63;;
60973;SDS011;46846;51.528;5.076;2024-01-06T02:02:41;692.22;;;657.28;;
60973;SDS011;46846;51.528;5.076;2024-01-06T02:05:06;680.40;;;646.15;;
60973;SDS011;46846;51.528;5.076;2024-01-06T02:07:32;720.53;;;684.08;;
60973;SDS011;46846;51.528;5.076;2024-01-06T02:09:57;725.42;;;688.72;;
60973;SDS011;46846;51.528;5.076;2024-01-06T02:12:22;693.63;;;658.97;;
60973;SDS011;46846;51.528;5.076;2024-01-06T02:14:48;694.80;;;659.97;;
60973;SDS011;46846;51.528;5.076;2024-01-06T02:17:13;695.30;;;660.33;;
60973;SDS011;46846;51.528;5.076;2024-01-06T02:19:39;718.60;;;681.83;;
60973;SDS011;46846;51.528;5.076;2024-01-06T02:24:29;681.23;;;647.17;;
60973;SDS011;46846;51.528;5.076;2024-01-06T02:29:20;672.93;;;639.57;;
60973;SDS011;46846;51.528;5.076;2024-01-06T02:31:45;701.10;;;665.92;;
60973;SDS011;46846;51.528;5.076;2024-01-06T02:34:11;686.78;;;651.92;;
60973;SDS011;46846;51.528;5.076;2024-01-06T02:39:01;697.07;;;662.07;;
60973;SDS011;46846;51.528;5.076;2024-01-06T02:43:53;685.93;;;651.70;;
60973;SDS011;46846;51.528;5.076;2024-01-06T02:46:20;707.22;;;671.42;;
60973;SDS011;46846;51.528;5.076;2024-01-06T02:48:46;698.17;;;662.78;;
60973;SDS011;46846;51.528;5.076;2024-01-06T02:53:37;674.90;;;640.97;;
60973;SDS011;46846;51.528;5.076;2024-01-06T02:56:03;691.30;;;656.70;;
60973;SDS011;46846;51.528;5.076;2024-01-06T02:58:29;699.67;;;664.53;;
60973;SDS011;46846;51.528;5.076;2024-01-06T03:00:54;695.80;;;660.55;;
60973;SDS011;46846;51.528;5.076;2024-01-06T03:03:19;701.17;;;665.80;;
60973;SDS011;46846;51.528;5.076;2024-01-06T03:05:45;695.58;;;660.00;;
60973;SDS011;46846;51.528;5.076;2024-01-06T03:08:14;722.78;;;685.97;;
60973;SDS011;46846;51.528;5.076;2024-01-06T03:10:39;723.38;;;686.72;;
60973;SDS011;46846;51.528;5.076;2024-01-06T03:13:05;699.78;;;664.53;;
60973;SDS011;46846;51.528;5.076;2024-01-06T03:17:55;702.20;;;666.77;;
60973;SDS011;46846;51.528;5.076;2024-01-06T03:20:21;677.05;;;643.20;;
60973;SDS011;46846;51.528;5.076;2024-01-06T03:25:12;669.60;;;636.30;;
60973;SDS011;46846;51.528;5.076;2024-01-06T03:27:37;704.20;;;668.88;;
60973;SDS011;46846;51.528;5.076;2024-01-06T03:32:28;694.70;;;660.10;;
60973;SDS011;46846;51.528;5.076;2024-01-06T03:37:19;679.57;;;645.83;;
60973;SDS011;46846;51.528;5.076;2024-01-06T03:39:44;701.83;;;666.30;;
60973;SDS011;46846;51.528;5.076;2024-01-06T03:42:09;672.67;;;639.17;;
60973;SDS011;46846;51.528;5.076;2024-01-06T03:44:35;710.47;;;674.85;;
60973;SDS011;46846;51.528;5.076;2024-01-06T03:47:00;695.65;;;660.80;;
60973;SDS011;46846;51.528;5.076;2024-01-06T03:51:52;692.58;;;657.90;;
60973;SDS011;46846;51.528;5.076;2024-01-06T03:54:17;686.83;;;652.50;;
60973;SDS011;46846;51.528;5.076;2024-01-06T03:56:42;689.58;;;655.03;;
60973;SDS011;46846;51.528;5.076;2024-01-06T03:59:08;681.63;;;647.63;;
60973;SDS011;46846;51.528;5.076;2024-01-06T04:01:34;688.30;;;653.60;;
60973;SDS011;46846;51.528;5.076;2024-01-06T04:04:03;702.97;;;667.50;;
60973;SDS011;46846;51.528;5.076;2024-01-06T04:06:29;731.33;;;694.10;;
60973;SDS011;46846;51.528;5.076;2024-01-06T04:08:57;704.75;;;669.20;;
60973;SDS011;46846;51.528;5.076;2024-01-06T04:11:22;692.78;;;657.40;;
60973;SDS011;46846;51.528;5.076;2024-01-06T04:13:48;700.45;;;664.92;;
60973;SDS011;46846;51.528;5.076;2024-01-06T04:16:13;698.15;;;663.03;;
60973;SDS011;46846;51.528;5.076;2024-01-06T04:18:38;708.05;;;672.03;;
60973;SDS011;46846;51.528;5.076;2024-01-06T04:21:04;725.78;;;688.72;;
60973;SDS011;46846;51.528;5.076;2024-01-06T04:23:30;732.88;;;695.55;;
60973;SDS011;46846;51.528;5.076;2024-01-06T04:25:56;715.40;;;678.88;;
60973;SDS011;46846;51.528;5.076;2024-01-06T04:30:47;711.58;;;675.78;;
60973;SDS011;46846;51.528;5.076;2024-01-06T04:33:12;685.08;;;650.75;;
60973;SDS011;46846;51.528;5.076;2024-01-06T04:35:37;693.00;;;658.33;;
60973;SDS011;46846;51.528;5.076;2024-01-06T04:38:03;724.72;;;687.45;;
60973;SDS011;46846;51.528;5.076;2024-01-06T04:40:28;702.53;;;666.88;;
60973;SDS011;46846;51.528;5.076;2024-01-06T04:42:54;697.70;;;662.55;;
60973;SDS011;46846;51.528;5.076;2024-01-06T04:45:19;729.28;;;691.97;;
60973;SDS011;46846;51.528;5.076;2024-01-06T04:47:45;685.75;;;651.42;;
60973;SDS011;46846;51.528;5.076;2024-01-06T04:50:10;715.25;;;678.50;;
60973;SDS011;46846;51.528;5.076;2024-01-06T04:52:35;718.40;;;681.70;;
60973;SDS011;46846;51.528;5.076;2024-01-06T04:55:01;712.25;;;675.92;;
60973;SDS011;46846;51.528;5.076;2024-01-06T04:57:27;723.63;;;686.92;;
60973;SDS011;46846;51.528;5.076;2024-01-06T04:59:52;705.67;;;670.13;;
60973;SDS011;46846;51.528;5.076;2024-01-06T05:02:18;699.65;;;664.28;;
60973;SDS011;46846;51.528;5.076;2024-01-06T05:04:43;701.97;;;666.47;;
60973;SDS011;46846;51.528;5.076;2024-01-06T05:09:34;708.07;;;672.57;;
60973;SDS011;46846;51.528;5.076;2024-01-06T05:14:25;651.13;;;618.70;;
60973;SDS011;46846;51.528;5.076;2024-01-06T05:16:50;694.33;;;659.47;;
60973;SDS011;46846;51.528;5.076;2024-01-06T05:21:45;665.63;;;632.58;;
60973;SDS011;46846;51.528;5.076;2024-01-06T05:24:12;674.95;;;641.30;;
60973;SDS011;46846;51.528;5.076;2024-01-06T05:26:37;704.58;;;669.33;;
60973;SDS011;46846;51.528;5.076;2024-01-06T05:29:02;715.20;;;678.72;;
60973;SDS011;46846;51.528;5.076;2024-01-06T05:31:28;683.13;;;648.88;;
60973;SDS011;46846;51.528;5.076;2024-01-06T05:33:53;713.83;;;677.50;;
60973;SDS011;46846;51.528;5.076;2024-01-06T05:36:19;683.83;;;649.65;;
60973;SDS011;46846;51.528;5.076;2024-01-06T05:38:47;687.45;;;652.55;;
60973;SDS011;46846;51.528;5.076;2024-01-06T05:41:13;713.70;;;677.33;;
60973;SDS011;46846;51.528;5.076;2024-01-06T05:43:38;704.50;;;669.00;;
60973;SDS011;46846;51.528;5.076;2024-01-06T05:46:04;708.05;;;672.20;;
60973;SDS011;46846;51.528;5.076;2024-01-06T05:48:29;713.67;;;677.63;;
60973;SDS011;46846;51.528;5.076;2024-01-06T05:50:55;719.80;;;683.40;;
60973;SDS011;46846;51.528;5.076;2024-01-06T05:55:45;688.90;;;654.37;;
60973;SDS011;46846;51.528;5.076;2024-01-06T06:00:36;657.60;;;625.03;;
60973;SDS011;46846;51.528;5.076;2024-01-06T06:03:02;705.50;;;670.10;;
60973;SDS011;46846;51.528;5.076;2024-01-06T06:05:27;674.88;;;641.20;;
60973;SDS011;46846;51.528;5.076;2024-01-06T06:07:53;686.60;;;652.35;;
60973;SDS011;46846;51.528;5.076;2024-01-06T06:10:19;706.03;;;670.55;;
60973;SDS011;46846;51.528;5.076;2024-01-06T06:12:45;711.45;;;675.78;;
60973;SDS011;46846;51.528;5.076;2024-01-06T06:15:11;691.42;;;656.78;;
60973;SDS011;46846;51.528;5.076;2024-01-06T06:17:36;709.22;;;673.63;;
60973;SDS011;46846;51.528;5.076;2024-01-06T06:20:02;717.10;;;680.90;;
60973;SDS011;46846;51.528;5.076;2024-01-06T06:24:58;692.83;;;658.22;;
60973;SDS011;46846;51.528;5.076;2024-01-06T06:27:24;683.58;;;649.42;;
60973;SDS011;46846;51.528;5.076;2024-01-06T06:29:50;707.35;;;671.63;;
60973;SDS011;46846;51.528;5.076;2024-01-06T06:34:42;678.40;;;644.73;;
60973;SDS011;46846;51.528;5.076;2024-01-06T06:37:07;674.30;;;640.75;;
60973;SDS011;46846;51.528;5.076;2024-01-06T06:39:33;702.78;;;667.58;;
60973;SDS011;46846;51.528;5.076;2024-01-06T06:42:00;686.83;;;652.55;;
60973;SDS011;46846;51.528;5.076;2024-01-06T06:46:51;682.30;;;648.35;;
60973;SDS011;46846;51.528;5.076;2024-01-06T06:49:17;698.40;;;663.20;;
60973;SDS011;46846;51.528;5.076;2024-01-06T06:51:42;675.97;;;642.30;;
60973;SDS011;46846;51.528;5.076;2024-01-06T06:54:12;678.40;;;643.95;;
60973;SDS011;46846;51.528;5.076;2024-01-06T06:59:03;654.40;;;622.00;;
60973;SDS011;46846;51.528;5.076;2024-01-06T07:01:28;665.10;;;631.10;;
60973;SDS011;46846;51.528;5.076;2024-01-06T07:03:54;668.00;;;634.75;;
60973;SDS011;46846;51.528;5.076;2024-01-06T07:06:19;670.15;;;636.80;;
60973;SDS011;46846;51.528;5.076;2024-01-06T07:11:10;650.23;;;617.93;;
60973;SDS011;46846;51.528;5.076;2024-01-06T07:13:36;659.50;;;626.80;;
60973;SDS011;46846;51.528;5.076;2024-01-06T07:16:02;647.25;;;615.13;;
60973;SDS011;46846;51.528;5.076;2024-01-06T07:18:27;666.53;;;633.13;;
60973;SDS011;46846;51.528;5.076;2024-01-06T07:23:18;666.97;;;633.80;;
60973;SDS011;46846;51.528;5.076;2024-01-06T07:25:43;678.85;;;645.03;;
60973;SDS011;46846;51.528;5.076;2024-01-06T07:28:09;693.72;;;658.83;;
60973;SDS011;46846;51.528;5.076;2024-01-06T07:30:34;665.65;;;632.35;;
60973;SDS011;46846;51.528;5.076;2024-01-06T07:33:00;668.70;;;635.15;;
60973;SDS011;46846;51.528;5.076;2024-01-06T07:35:25;704.83;;;669.22;;
60973;SDS011;46846;51.528;5.076;2024-01-06T07:37:51;671.75;;;638.33;;
60973;SDS011;46846;51.528;5.076;2024-01-06T07:40:16;708.63;;;672.65;;
60973;SDS011;46846;51.528;5.076;2024-01-06T07:42:42;681.42;;;647.33;;
60973;SDS011;46846;51.528;5.076;2024-01-06T07:45:08;705.35;;;669.50;;
60973;SDS011;46846;51.528;5.076;2024-01-06T07:47:34;701.17;;;665.88;;
60973;SDS011;46846;51.528;5.076;2024-01-06T07:52:25;631.63;;;600.47;;
60973;SDS011;46846;51.528;5.076;2024-01-06T07:54:50;685.17;;;650.85;;
60973;SDS011;46846;51.528;5.076;2024-01-06T07:57:16;666.08;;;632.97;;
60973;SDS011;46846;51.528;5.076;2024-01-06T07:59:41;709.38;;;673.67;;
60973;SDS011;46846;51.528;5.076;2024-01-06T08:02:06;699.05;;;663.95;;
60973;SDS011;46846;51.528;5.076;2024-01-06T08:04:32;703.22;;;667.75;;
60973;SDS011;46846;51.528;5.076;2024-01-06T08:06:57;682.28;;;648.33;;
60973;SDS011;46846;51.528;5.076;2024-01-06T08:09:23;696.83;;;661.83;;
60973;SDS011;46846;51.528;5.076;2024-01-06T08:11:48;701.55;;;666.30;;
60973;SDS011;46846;51.528;5.076;2024-01-06T08:14:14;706.78;;;671.38;;
60973;SDS011;46846;51.528;5.076;2024-01-06T08:16:41;701.15;;;665.55;;
60973;SDS011;46846;51.528;5.076;2024-01-06T08:19:07;676.00;;;642.40;;
60973;SDS011;46846;51.528;5.076;2024-01-06T08:21:32;697.55;;;662.55;;
60973;SDS011;46846;51.528;5.076;2024-01-06T08:23:59;699.67;;;664.58;;
60973;SDS011;46846;51.528;5.076;2024-01-06T08:26:25;665.50;;;631.95;;
60973;SDS011;46846;51.528;5.076;2024-01-06T08:31:16;654.53;;;622.10;;
60973;SDS011;46846;51.528;5.076;2024-01-06T08:33:41;692.10;;;657.40;;
60973;SDS011;46846;51.528;5.076;2024-01-06T08:36:08;672.25;;;638.58;;
60973;SDS011;46846;51.528;5.076;2024-01-06T08:38:34;691.40;;;656.85;;
60973;SDS011;46846;51.528;5.076;2024-01-06T08:41:00;672.42;;;638.70;;
60973;SDS011;46846;51.528;5.076;2024-01-06T08:43:26;705.42;;;670.13;;
60973;SDS011;46846;51.528;5.076;2024-01-06T08:45:51;676.85;;;642.63;;
60973;SDS011;46846;51.528;5.076;2024-01-06T08:48:17;676.20;;;642.25;;
60973;SDS011;46846;51.528;5.076;2024-01-06T08:50:43;670.10;;;636.35;;
60973;SDS011;46846;51.528;5.076;2024-01-06T08:53:10;700.78;;;665.58;;
60973;SDS011;46846;51.528;5.076;2024-01-06T08:55:36;699.58;;;664.55;;
60973;SDS011;46846;51.528;5.076;2024-01-06T08:58:01;671.50;;;637.85;;
60973;SDS011;46846;51.528;5.076;2024-01-06T09:00:27;677.55;;;643.53;;
60973;SDS011;46846;51.528;5.076;2024-01-06T09:02:52;677.22;;;643.30;;
60973;SDS011;46846;51.528;5.076;2024-01-06T09:05:18;702.78;;;667.33;;
60973;SDS011;46846;51.528;5.076;2024-01-06T09:07:43;669.17;;;635.83;;
60973;SDS011;46846;51.528;5.076;2024-01-06T09:10:14;702.28;;;667.00;;
60973;SDS011;46846;51.528;5.076;2024-01-06T09:12:39;676.72;;;642.55;;
60973;SDS011;46846;51.528;5.076;2024-01-06T09:15:05;667.00;;;633.75;;
60973;SDS011;46846;51.528;5.076;2024-01-06T09:17:30;667.95;;;634.60;;
60973;SDS011;46846;51.528;5.076;2024-01-06T09:22:21;685.83;;;651.42;;
60973;SDS011;46846;51.528;5.076;2024-01-06T09:24:48;694.38;;;659.55;;
60973;SDS011;46846;51.528;5.076;2024-01-06T09:27:14;694.05;;;659.38;;
60973;SDS011;46846;51.528;5.076;2024-01-06T09:29:40;684.47;;;650.20;;
60973;SDS011;46846;51.528;5.076;2024-01-06T09:32:06;672.92;;;639.33;;
60973;SDS011;46846;51.528;5.076;2024-01-06T09:34:32;691.67;;;657.10;;
60973;SDS011;46846;51.528;5.076;2024-01-06T09:39:22;676.37;;;642.80;;
60973;SDS011;46846;51.528;5.076;2024-01-06T09:41:48;660.13;;;626.83;;
60973;SDS011;46846;51.528;5.076;2024-01-06T09:44:13;693.47;;;658.42;;
60973;SDS011;46846;51.528;5.076;2024-01-06T09:46:40;688.42;;;654.03;;
60973;SDS011;46846;51.528;5.076;2024-01-06T09:49:07;653.47;;;620.97;;
60973;SDS011;46846;51.528;5.076;2024-01-06T09:51:34;679.10;;;645.22;;
60973;SDS011;46846;51.528;5.076;2024-01-06T09:54:04;660.30;;;627.40;;
60973;SDS011;46846;51.528;5.076;2024-01-06T09:56:33;678.67;;;644.75;;
60973;SDS011;46846;51.528;5.076;2024-01-06T10:01:24;630.80;;;599.55;;
60973;SDS011;46846;51.528;5.076;2024-01-06T10:03:50;643.83;;;611.63;;
60973;SDS011;46846;51.528;5.076;2024-01-06T10:06:15;681.72;;;647.72;;
60973;SDS011;46846;51.528;5.076;2024-01-06T10:08:51;647.63;;;615.58;;
60973;SDS011;46846;51.528;5.076;2024-01-06T10:11:23;658.15;;;625.50;;
60973;SDS011;46846;51.528;5.076;2024-01-06T10:13:49;658.10;;;625.35;;
60973;SDS011;46846;51.528;5.076;2024-01-06T10:16:21;658.63;;;625.53;;
60973;SDS011;46846;51.528;5.076;2024-01-06T10:21:13;655.60;;;623.15;;
60973;SDS011;46846;51.528;5.076;2024-01-06T10:23:42;642.38;;;610.47;;
60973;SDS011;46846;51.528;5.076;2024-01-06T10:26:08;647.85;;;615.60;;
60973;SDS011;46846;51.528;5.076;2024-01-06T10:28:37;670.35;;;636.65;;
60973;SDS011;46846;51.528;5.076;2024-01-06T10:31:03;682.65;;;648.65;;
60973;SDS011;46846;51.528;5.076;2024-01-06T10:33:28;676.28;;;642.05;;
60973;SDS011;46846;51.528;5.076;2024-01-06T10:35:54;674.53;;;641.13;;
60973;SDS011;46846;51.528;5.076;2024-01-06T10:38:20;668.75;;;635.53;;
60973;SDS011;46846;51.528;5.076;2024-01-06T10:40:58;651.08;;;618.75;;
60973;SDS011;46846;51.528;5.076;2024-01-06T10:43:25;674.35;;;640.65;;
60973;SDS011;46846;51.528;5.076;2024-01-06T10:45:54;647.08;;;614.92;;
60973;SDS011;46846;51.528;5.076;2024-01-06T10:48:24;649.60;;;617.05;;
60973;SDS011;46846;51.528;5.076;2024-01-06T10:50:51;676.45;;;642.78;;
60973;SDS011;46846;51.528;5.076;2024-01-06T10:53:18;669.28;;;635.97;;
60973;SDS011;46846;51.528;5.076;2024-01-06T10:55:48;666.85;;;633.45;;
60973;SDS011;46846;51.528;5.076;2024-01-06T10:58:16;685.15;;;650.60;;
60973;SDS011;46846;51.528;5.076;2024-01-06T11:00:42;649.95;;;617.60;;
60973;SDS011;46846;51.528;5.076;2024-01-06T11:03:07;677.40;;;643.70;;
60973;SDS011;46846;51.528;5.076;2024-01-06T11:05:35;678.70;;;643.83;;
60973;SDS011;46846;51.528;5.076;2024-01-06T11:08:01;670.58;;;637.10;;
60973;SDS011;46846;51.528;5.076;2024-01-06T11:10:29;640.50;;;608.35;;
60973;SDS011;46846;51.528;5.076;2024-01-06T11:13:12;674.58;;;640.78;;
60973;SDS011;46846;51.528;5.076;2024-01-06T11:15:42;678.83;;;645.03;;
60973;SDS011;46846;51.528;5.076;2024-01-06T11:18:08;652.58;;;620.17;;
60973;SDS011;46846;51.528;5.076;2024-01-06T11:20:34;656.58;;;623.63;;
60973;SDS011;46846;51.528;5.076;2024-01-06T11:23:17;679.15;;;645.20;;
60973;SDS011;46846;51.528;5.076;2024-01-06T11:25:47;652.90;;;620.40;;
60973;SDS011;46846;51.528;5.076;2024-01-06T11:28:12;692.17;;;657.55;;
60973;SDS011;46846;51.528;5.076;2024-01-06T11:30:38;665.92;;;632.67;;
60973;SDS011;46846;51.528;5.076;2024-01-06T11:33:05;670.10;;;636.60;;
60973;SDS011;46846;51.528;5.076;2024-01-06T11:35:30;688.85;;;654.17;;
60973;SDS011;46846;51.528;5.076;2024-01-06T11:37:57;688.90;;;654.45;;
60973;SDS011;46846;51.528;5.076;2024-01-06T11:40:32;659.58;;;626.53;;
60973;SDS011;46846;51.528;5.076;2024-01-06T11:45:30;640.85;;;608.55;;
60973;SDS011;46846;51.528;5.076;2024-01-06T11:48:00;684.55;;;649.95;;
60973;SDS011;46846;51.528;5.076;2024-01-06T11:50:28;660.88;;;627.33;;
60973;SDS011;46846;51.528;5.076;2024-01-06T11:52:55;663.28;;;630.10;;
60973;SDS011;46846;51.528;5.076;2024-01-06T11:55:21;644.20;;;612.20;;
60973;SDS011;46846;51.528;5.076;2024-01-06T11:57:47;675.05;;;641.10;;
60973;SDS011;46846;51.528;5.076;2024-01-06T12:00:15;690.20;;;655.78;;
60973;SDS011;46846;51.528;5.076;2024-01-06T12:02:42;658.85;;;626.10;;
60973;SDS011;46846;51.528;5.076;2024-01-06T12:05:15;689.88;;;655.47;;
60973;SDS011;46846;51.528;5.076;2024-01-06T12:10:19;632.10;;;600.67;;
60973;SDS011;46846;51.528;5.076;2024-01-06T12:12:54;662.85;;;629.95;;
60973;SDS011;46846;51.528;5.076;2024-01-06T12:15:20;642.25;;;610.40;;
60973;SDS011;46846;51.528;5.076;2024-01-06T12:17:45;643.67;;;611.55;;
60973;SDS011;46846;51.528;5.076;2024-01-06T12:20:11;644.58;;;612.63;;
60973;SDS011;46846;51.528;5.076;2024-01-06T12:22:37;656.88;;;624.13;;
60973;SDS011;46846;51.528;5.076;2024-01-06T12:25:02;636.85;;;605.28;;
60973;SDS011;46846;51.528;5.076;2024-01-06T12:27:30;640.38;;;608.55;;
60973;SDS011;46846;51.528;5.076;2024-01-06T12:29:56;670.67;;;637.42;;
60973;SDS011;46846;51.528;5.076;2024-01-06T12:32:21;641.92;;;610.13;;
60973;SDS011;46846;51.528;5.076;2024-01-06T12:34:47;654.35;;;621.90;;
60973;SDS011;46846;51.528;5.076;2024-01-06T12:37:12;644.22;;;612.17;;
60973;SDS011;46846;51.528;5.076;2024-01-06T12:39:38;680.00;;;646.03;;
60973;SDS011;46846;51.528;5.076;2024-01-06T12:42:03;665.10;;;632.00;;
60973;SDS011;46846;51.528;5.076;2024-01-06T12:44:29;630.80;;;599.67;;
60973;SDS011;46846;51.528;5.076;2024-01-06T12:46:57;670.63;;;637.22;;
60973;SDS011;46846;51.528;5.076;2024-01-06T12:49:22;670.85;;;637.40;;
60973;SDS011;46846;51.528;5.076;2024-01-06T12:51:48;679.90;;;645.55;;
60973;SDS011;46846;51.528;5.076;2024-01-06T12:56:40;642.75;;;610.88;;
60973;SDS011;46846;51.528;5.076;2024-01-06T12:59:05;635.10;;;603.55;;
60973;SDS011;46846;51.528;5.076;2024-01-06T13:01:31;638.00;;;606.35;;
60973;SDS011;46846;51.528;5.076;2024-01-06T13:03:56;643.83;;;612.03;;
60973;SDS011;46846;51.528;5.076;2024-01-06T13:06:24;667.67;;;634.50;;
60973;SDS011;46846;51.528;5.076;2024-01-06T13:08:50;670.55;;;637.05;;
60973;SDS011;46846;51.528;5.076;2024-01-06T13:11:16;639.47;;;607.72;;
60973;SDS011;46846;51.528;5.076;2024-01-06T13:13:41;643.78;;;611.95;;
60973;SDS011;46846;51.528;5.076;2024-01-06T13:16:07;661.03;;;628.28;;
60973;SDS011;46846;51.528;5.076;2024-01-06T13:18:32;645.88;;;613.78;;
60973;SDS011;46846;51.528;5.076;2024-01-06T13:20:57;637.72;;;606.00;;
60973;SDS011;46846;51.528;5.076;2024-01-06T13:23:23;664.22;;;631.28;;
60973;SDS011;46846;51.528;5.076;2024-01-06T13:25:48;633.95;;;602.50;;
60973;SDS011;46846;51.528;5.076;2024-01-06T13:28:14;628.00;;;596.85;;
60973;SDS011;46846;51.528;5.076;2024-01-06T13:30:39;636.13;;;604.28;;
60973;SDS011;46846;51.528;5.076;2024-01-06T13:33:06;634.00;;;602.28;;
60973;SDS011;46846;51.528;5.076;2024-01-06T13:35:32;653.22;;;620.28;;
60973;SDS011;46846;51.528;5.076;2024-01-06T13:37:58;634.65;;;602.63;;
60973;SDS011;46846;51.528;5.076;2024-01-06T13:40:24;633.90;;;602.05;;
60973;SDS011;46846;51.528;5.076;2024-01-06T13:42:50;656.60;;;624.08;;
60973;SDS011;46846;51.528;5.076;2024-01-06T13:45:16;643.55;;;611.47;;
60973;SDS011;46846;51.528;5.076;2024-01-06T13:47:42;638.88;;;607.30;;
60973;SDS011;46846;51.528;5.076;2024-01-06T13:50:09;663.33;;;630.33;;
60973;SDS011;46846;51.528;5.076;2024-01-06T13:52:38;663.33;;;630.42;;
60973;SDS011;46846;51.528;5.076;2024-01-06T13:55:04;669.08;;;635.70;;
60973;SDS011;46846;51.528;5.076;2024-01-06T13:57:30;681.75;;;647.65;;
60973;SDS011;46846;51.528;5.076;2024-01-06T13:59:56;650.95;;;618.20;;
60973;SDS011;46846;51.528;5.076;2024-01-06T14:02:22;667.05;;;633.33;;
60973;SDS011;46846;51.528;5.076;2024-01-06T14:04:48;660.20;;;627.28;;
60973;SDS011;46846;51.528;5.076;2024-01-06T14:07:13;648.47;;;615.95;;
60973;SDS011;46846;51.528;5.076;2024-01-06T14:09:39;642.78;;;610.85;;
60973;SDS011;46846;51.528;5.076;2024-01-06T14:12:04;650.97;;;618.22;;
60973;SDS011;46846;51.528;5.076;2024-01-06T14:14:33;680.05;;;645.83;;
60973;SDS011;46846;51.528;5.076;2024-01-06T14:16:58;638.45;;;606.42;;
60973;SDS011;46846;51.528;5.076;2024-01-06T14:19:24;643.35;;;611.33;;
60973;SDS011;46846;51.528;5.076;2024-01-06T14:21:50;671.08;;;637.42;;
60973;SDS011;46846;51.528;5.076;2024-01-06T14:24:18;668.70;;;635.40;;
60973;SDS011;46846;51.528;5.076;2024-01-06T14:26:54;652.50;;;619.90;;
60973;SDS011;46846;51.528;5.076;2024-01-06T14:29:21;637.70;;;605.83;;
60973;SDS011;46846;51.528;5.076;2024-01-06T14:31:46;642.67;;;610.75;;
60973;SDS011;46846;51.528;5.076;2024-01-06T14:34:12;643.83;;;611.78;;
60973;SDS011;46846;51.528;5.076;2024-01-06T14:36:38;671.88;;;637.45;;
60973;SDS011;46846;51.528;5.076;2024-01-06T14:39:03;677.13;;;643.08;;
60973;SDS011;46846;51.528;5.076;2024-01-06T14:41:31;673.55;;;640.17;;
60973;SDS011;46846;51.528;5.076;2024-01-06T14:46:23;624.30;;;593.53;;
60973;SDS011;46846;51.528;5.076;2024-01-06T14:48:49;640.45;;;608.45;;
60973;SDS011;46846;51.528;5.076;2024-01-06T14:51:14;625.53;;;594.50;;
60973;SDS011;46846;51.528;5.076;2024-01-06T14:53:39;658.83;;;625.70;;
60973;SDS011;46846;51.528;5.076;2024-01-06T14:56:05;638.65;;;606.85;;
60973;SDS011;46846;51.528;5.076;2024-01-06T14:58:30;640.05;;;608.10;;
60973;SDS011;46846;51.528;5.076;2024-01-06T15:00:56;634.33;;;602.90;;
60973;SDS011;46846;51.528;5.076;2024-01-06T15:03:21;640.50;;;608.10;;
60973;SDS011;46846;51.528;5.076;2024-01-06T15:05:48;674.97;;;641.17;;
60973;SDS011;46846;51.528;5.076;2024-01-06T15:08:14;676.83;;;643.15;;
60973;SDS011;46846;51.528;5.076;2024-01-06T15:10:40;670.58;;;637.03;;
60973;SDS011;46846;51.528;5.076;2024-01-06T15:13:05;644.30;;;612.22;;
60973;SDS011;46846;51.528;5.076;2024-01-06T15:15:30;651.05;;;618.72;;
60973;SDS011;46846;51.528;5.076;2024-01-06T15:17:56;640.15;;;608.15;;
60973;SDS011;46846;51.528;5.076;2024-01-06T15:20:21;667.25;;;633.92;;
60973;SDS011;46846;51.528;5.076;2024-01-06T15:22:48;679.53;;;645.47;;
60973;SDS011;46846;51.528;5.076;2024-01-06T15:25:13;674.42;;;639.45;;
60973;SDS011;46846;51.528;5.076;2024-01-06T15:27:39;662.08;;;629.25;;
60973;SDS011;46846;51.528;5.076;2024-01-06T15:30:04;641.92;;;610.10;;
60973;SDS011;46846;51.528;5.076;2024-01-06T15:32:34;662.22;;;629.13;;
60973;SDS011;46846;51.528;5.076;2024-01-06T15:35:00;670.97;;;637.58;;
60973;SDS011;46846;51.528;5.076;2024-01-06T15:37:25;669.42;;;635.67;;
60973;SDS011;46846;51.528;5.076;2024-01-06T15:39:50;659.83;;;627.00;;